sensor_id;sensor_type;location;lat;lon;timestamp;P1;durP1;ratioP1;P2;durP2;ratioP2
82022;SDS011;71575;49.908;18.356;2024-03-02T00:01:01;83.72;;;44.40;;
82022;SDS011;71575;49.908;18.356;2024-03-02T00:04:19;88.82;;;43.58;;
82022;SDS011;71575;49.908;18.356;2024-03-02T00:07:20;82.30;;;43.15;;
82022;SDS011;71575;49.908;18.356;2024-03-02T00:10:30;77.30;;;43.78;;
82022;SDS011;71575;49.908;18.356;2024-03-02T00:13:42;83.35;;;43.88;;
82022;SDS011;71575;49.908;18.356;2024-03-02T00:16:43;80.90;;;38.10;;
82022;SDS011;71575;49.908;18.356;2024-03-02T00:19:43;79.70;;;43.03;;
82022;SDS011;71575;49.908;18.356;2024-03-02T00:22:44;83.22;;;44.55;;
82022;SDS011;71575;49.908;18.356;2024-03-02T00:25:49;79.30;;;41.58;;
82022;SDS011;71575;49.908;18.356;2024-03-02T00:28:50;79.13;;;41.60;;
82022;SDS011;71575;49.908;18.356;2024-03-02T00:31:55;79.25;;;42.38;;
82022;SDS011;71575;49.908;18.356;2024-03-02T00:34:55;77.60;;;42.28;;
82022;SDS011;71575;49.908;18.356;2024-03-02T00:37:57;78.60;;;43.72;;
82022;SDS011;71575;49.908;18.356;2024-03-02T00:40:58;77.95;;;41.90;;
82022;SDS011;71575;49.908;18.356;2024-03-02T00:44:03;82.20;;;44.95;;
82022;SDS011;71575;49.908;18.356;2024-03-02T00:47:04;81.43;;;44.67;;
82022;SDS011;71575;49.908;18.356;2024-03-02T00:50:05;71.50;;;41.60;;
82022;SDS011;71575;49.908;18.356;2024-03-02T00:53:09;70.38;;;40.13;;
82022;SDS011;71575;49.908;18.356;2024-03-02T00:56:11;78.78;;;42.13;;
82022;SDS011;71575;49.908;18.356;2024-03-02T00:59:12;79.30;;;43.60;;
82022;SDS011;71575;49.908;18.356;2024-03-02T01:02:13;82.82;;;45.40;;
82022;SDS011;71575;49.908;18.356;2024-03-02T01:05:14;73.45;;;41.47;;
82022;SDS011;71575;49.908;18.356;2024-03-02T01:08:15;76.70;;;44.03;;
82022;SDS011;71575;49.908;18.356;2024-03-02T01:11:16;75.93;;;42.72;;
82022;SDS011;71575;49.908;18.356;2024-03-02T01:14:17;70.53;;;36.40;;
82022;SDS011;71575;49.908;18.356;2024-03-02T01:17:17;76.13;;;45.00;;
82022;SDS011;71575;49.908;18.356;2024-03-02T01:20:19;78.88;;;41.28;;
82022;SDS011;71575;49.908;18.356;2024-03-02T01:23:19;72.05;;;35.55;;
82022;SDS011;71575;49.908;18.356;2024-03-02T01:26:20;74.40;;;37.80;;
82022;SDS011;71575;49.908;18.356;2024-03-02T01:29:21;74.05;;;39.65;;
82022;SDS011;71575;49.908;18.356;2024-03-02T01:32:21;68.82;;;38.47;;
82022;SDS011;71575;49.908;18.356;2024-03-02T01:35:22;77.78;;;40.20;;
82022;SDS011;71575;49.908;18.356;2024-03-02T01:38:23;69.22;;;39.35;;
82022;SDS011;71575;49.908;18.356;2024-03-02T01:41:23;77.25;;;42.35;;
82022;SDS011;71575;49.908;18.356;2024-03-02T01:44:24;71.00;;;39.25;;
82022;SDS011;71575;49.908;18.356;2024-03-02T01:47:25;72.07;;;37.47;;
82022;SDS011;71575;49.908;18.356;2024-03-02T01:50:29;70.28;;;37.45;;
82022;SDS011;71575;49.908;18.356;2024-03-02T01:53:32;72.38;;;41.40;;
82022;SDS011;71575;49.908;18.356;2024-03-02T01:56:33;75.72;;;39.50;;
82022;SDS011;71575;49.908;18.356;2024-03-02T01:59:33;72.03;;;39.47;;
82022;SDS011;71575;49.908;18.356;2024-03-02T02:02:34;73.55;;;39.75;;
82022;SDS011;71575;49.908;18.356;2024-03-02T02:05:34;69.30;;;35.22;;
82022;SDS011;71575;49.908;18.356;2024-03-02T02:08:36;69.38;;;38.45;;
82022;SDS011;71575;49.908;18.356;2024-03-02T02:11:37;72.32;;;39.88;;
82022;SDS011;71575;49.908;18.356;2024-03-02T02:14:38;71.03;;;40.28;;
82022;SDS011;71575;49.908;18.356;2024-03-02T02:17:38;68.30;;;33.63;;
82022;SDS011;71575;49.908;18.356;2024-03-02T02:20:39;64.07;;;37.60;;
82022;SDS011;71575;49.908;18.356;2024-03-02T02:23:40;66.40;;;36.08;;
82022;SDS011;71575;49.908;18.356;2024-03-02T02:26:41;77.97;;;40.22;;
82022;SDS011;71575;49.908;18.356;2024-03-02T02:29:41;74.68;;;40.15;;
82022;SDS011;71575;49.908;18.356;2024-03-02T02:32:42;71.40;;;37.28;;
82022;SDS011;71575;49.908;18.356;2024-03-02T02:35:42;71.55;;;36.90;;
82022;SDS011;71575;49.908;18.356;2024-03-02T02:38:44;75.20;;;40.20;;
82022;SDS011;71575;49.908;18.356;2024-03-02T02:41:46;73.35;;;41.83;;
82022;SDS011;71575;49.908;18.356;2024-03-02T02:44:47;68.85;;;39.45;;
82022;SDS011;71575;49.908;18.356;2024-03-02T02:47:47;70.72;;;37.65;;
82022;SDS011;71575;49.908;18.356;2024-03-02T02:50:48;70.70;;;38.13;;
82022;SDS011;71575;49.908;18.356;2024-03-02T02:53:49;72.78;;;39.03;;
82022;SDS011;71575;49.908;18.356;2024-03-02T02:56:50;70.13;;;36.58;;
82022;SDS011;71575;49.908;18.356;2024-03-02T02:59:50;72.07;;;39.67;;
82022;SDS011;71575;49.908;18.356;2024-03-02T03:02:51;70.20;;;37.47;;
82022;SDS011;71575;49.908;18.356;2024-03-02T03:05:52;76.60;;;39.33;;
82022;SDS011;71575;49.908;18.356;2024-03-02T03:08:52;71.63;;;34.75;;
82022;SDS011;71575;49.908;18.356;2024-03-02T03:11:53;72.28;;;39.00;;
82022;SDS011;71575;49.908;18.356;2024-03-02T03:14:54;69.88;;;35.42;;
82022;SDS011;71575;49.908;18.356;2024-03-02T03:17:55;70.57;;;34.97;;
82022;SDS011;71575;49.908;18.356;2024-03-02T03:20:56;74.93;;;40.05;;
82022;SDS011;71575;49.908;18.356;2024-03-02T03:23:56;73.22;;;39.88;;
82022;SDS011;71575;49.908;18.356;2024-03-02T03:26:57;75.50;;;37.85;;
82022;SDS011;71575;49.908;18.356;2024-03-02T03:29:58;71.53;;;41.33;;
82022;SDS011;71575;49.908;18.356;2024-03-02T03:32:58;66.60;;;38.20;;
82022;SDS011;71575;49.908;18.356;2024-03-02T03:35:59;73.93;;;38.33;;
82022;SDS011;71575;49.908;18.356;2024-03-02T03:39:00;75.40;;;36.90;;
82022;SDS011;71575;49.908;18.356;2024-03-02T03:42:01;61.53;;;32.15;;
82022;SDS011;71575;49.908;18.356;2024-03-02T03:45:02;69.03;;;35.08;;
82022;SDS011;71575;49.908;18.356;2024-03-02T03:48:03;74.85;;;39.33;;
82022;SDS011;71575;49.908;18.356;2024-03-02T03:51:04;71.43;;;41.15;;
82022;SDS011;71575;49.908;18.356;2024-03-02T03:54:05;75.50;;;39.80;;
82022;SDS011;71575;49.908;18.356;2024-03-02T03:57:06;79.63;;;43.75;;
82022;SDS011;71575;49.908;18.356;2024-03-02T04:00:06;76.88;;;40.45;;
82022;SDS011;71575;49.908;18.356;2024-03-02T04:03:13;77.60;;;41.85;;
82022;SDS011;71575;49.908;18.356;2024-03-02T04:06:14;77.38;;;40.38;;
82022;SDS011;71575;49.908;18.356;2024-03-02T04:09:15;78.82;;;41.53;;
82022;SDS011;71575;49.908;18.356;2024-03-02T04:12:16;77.32;;;40.22;;
82022;SDS011;71575;49.908;18.356;2024-03-02T04:15:17;78.55;;;42.10;;
82022;SDS011;71575;49.908;18.356;2024-03-02T04:18:17;75.40;;;41.10;;
82022;SDS011;71575;49.908;18.356;2024-03-02T04:21:18;76.03;;;40.15;;
82022;SDS011;71575;49.908;18.356;2024-03-02T04:24:18;77.10;;;40.65;;
82022;SDS011;71575;49.908;18.356;2024-03-02T04:27:19;77.03;;;40.65;;
82022;SDS011;71575;49.908;18.356;2024-03-02T04:30:20;74.03;;;38.20;;
82022;SDS011;71575;49.908;18.356;2024-03-02T04:33:21;71.20;;;38.80;;
82022;SDS011;71575;49.908;18.356;2024-03-02T04:36:22;73.20;;;37.20;;
82022;SDS011;71575;49.908;18.356;2024-03-02T04:39:22;72.03;;;40.03;;
82022;SDS011;71575;49.908;18.356;2024-03-02T04:42:23;72.65;;;41.45;;
82022;SDS011;71575;49.908;18.356;2024-03-02T04:45:24;82.22;;;41.88;;
82022;SDS011;71575;49.908;18.356;2024-03-02T04:48:24;69.85;;;37.42;;
82022;SDS011;71575;49.908;18.356;2024-03-02T04:51:25;71.78;;;34.38;;
82022;SDS011;71575;49.908;18.356;2024-03-02T04:54:26;65.90;;;38.17;;
82022;SDS011;71575;49.908;18.356;2024-03-02T04:57:27;76.82;;;41.25;;
82022;SDS011;71575;49.908;18.356;2024-03-02T05:00:27;74.18;;;39.40;;
82022;SDS011;71575;49.908;18.356;2024-03-02T05:03:28;72.97;;;40.00;;
82022;SDS011;71575;49.908;18.356;2024-03-02T05:06:29;78.85;;;42.72;;
82022;SDS011;71575;49.908;18.356;2024-03-02T05:09:29;74.20;;;40.33;;
82022;SDS011;71575;49.908;18.356;2024-03-02T05:12:30;71.53;;;43.00;;
82022;SDS011;71575;49.908;18.356;2024-03-02T05:15:31;72.80;;;40.80;;
82022;SDS011;71575;49.908;18.356;2024-03-02T05:18:32;72.25;;;45.65;;
82022;SDS011;71575;49.908;18.356;2024-03-02T05:21:32;71.70;;;35.83;;
82022;SDS011;71575;49.908;18.356;2024-03-02T05:24:34;71.28;;;42.13;;
82022;SDS011;71575;49.908;18.356;2024-03-02T05:27:34;73.35;;;41.10;;
82022;SDS011;71575;49.908;18.356;2024-03-02T05:30:35;71.80;;;41.75;;
82022;SDS011;71575;49.908;18.356;2024-03-02T05:33:37;74.45;;;42.45;;
82022;SDS011;71575;49.908;18.356;2024-03-02T05:36:38;75.45;;;41.63;;
82022;SDS011;71575;49.908;18.356;2024-03-02T05:39:39;70.45;;;41.55;;
82022;SDS011;71575;49.908;18.356;2024-03-02T05:42:40;67.88;;;39.88;;
82022;SDS011;71575;49.908;18.356;2024-03-02T05:45:40;64.22;;;32.40;;
82022;SDS011;71575;49.908;18.356;2024-03-02T05:48:41;67.97;;;39.15;;
82022;SDS011;71575;49.908;18.356;2024-03-02T05:51:42;64.28;;;39.00;;
82022;SDS011;71575;49.908;18.356;2024-03-02T05:54:43;69.95;;;38.88;;
82022;SDS011;71575;49.908;18.356;2024-03-02T05:57:45;71.85;;;39.95;;
82022;SDS011;71575;49.908;18.356;2024-03-02T06:00:45;68.75;;;37.05;;
82022;SDS011;71575;49.908;18.356;2024-03-02T06:03:46;69.03;;;38.25;;
82022;SDS011;71575;49.908;18.356;2024-03-02T06:06:47;71.70;;;39.30;;
82022;SDS011;71575;49.908;18.356;2024-03-02T06:09:47;68.93;;;38.63;;
82022;SDS011;71575;49.908;18.356;2024-03-02T06:12:48;70.38;;;38.75;;
82022;SDS011;71575;49.908;18.356;2024-03-02T06:15:49;68.60;;;35.97;;
82022;SDS011;71575;49.908;18.356;2024-03-02T06:18:49;68.07;;;39.40;;
82022;SDS011;71575;49.908;18.356;2024-03-02T06:21:50;65.18;;;34.50;;
82022;SDS011;71575;49.908;18.356;2024-03-02T06:24:51;66.57;;;38.80;;
82022;SDS011;71575;49.908;18.356;2024-03-02T06:27:51;66.22;;;40.30;;
82022;SDS011;71575;49.908;18.356;2024-03-02T06:30:52;72.65;;;38.70;;
82022;SDS011;71575;49.908;18.356;2024-03-02T06:33:53;67.55;;;37.60;;
82022;SDS011;71575;49.908;18.356;2024-03-02T06:36:53;65.70;;;38.90;;
82022;SDS011;71575;49.908;18.356;2024-03-02T06:39:54;67.78;;;38.88;;
82022;SDS011;71575;49.908;18.356;2024-03-02T06:42:55;73.28;;;39.63;;
82022;SDS011;71575;49.908;18.356;2024-03-02T06:45:55;64.82;;;38.70;;
82022;SDS011;71575;49.908;18.356;2024-03-02T06:48:56;61.67;;;37.75;;
82022;SDS011;71575;49.908;18.356;2024-03-02T06:51:57;65.38;;;38.63;;
82022;SDS011;71575;49.908;18.356;2024-03-02T06:54:57;69.85;;;40.50;;
82022;SDS011;71575;49.908;18.356;2024-03-02T06:57:58;65.50;;;40.75;;
82022;SDS011;71575;49.908;18.356;2024-03-02T07:00:59;69.70;;;40.47;;
82022;SDS011;71575;49.908;18.356;2024-03-02T07:04:00;71.93;;;39.45;;
82022;SDS011;71575;49.908;18.356;2024-03-02T07:07:00;72.22;;;42.58;;
82022;SDS011;71575;49.908;18.356;2024-03-02T07:10:01;66.63;;;40.53;;
82022;SDS011;71575;49.908;18.356;2024-03-02T07:13:02;69.97;;;40.55;;
82022;SDS011;71575;49.908;18.356;2024-03-02T07:16:03;69.05;;;35.50;;
82022;SDS011;71575;49.908;18.356;2024-03-02T07:19:04;72.10;;;42.70;;
82022;SDS011;71575;49.908;18.356;2024-03-02T07:22:07;70.32;;;40.63;;
82022;SDS011;71575;49.908;18.356;2024-03-02T07:25:08;64.20;;;34.35;;
82022;SDS011;71575;49.908;18.356;2024-03-02T07:28:09;59.88;;;37.83;;
82022;SDS011;71575;49.908;18.356;2024-03-02T07:31:10;62.97;;;40.95;;
82022;SDS011;71575;49.908;18.356;2024-03-02T07:34:12;65.35;;;39.22;;
82022;SDS011;71575;49.908;18.356;2024-03-02T07:37:13;65.57;;;41.45;;
82022;SDS011;71575;49.908;18.356;2024-03-02T07:40:14;58.97;;;36.42;;
82022;SDS011;71575;49.908;18.356;2024-03-02T07:43:15;60.58;;;39.08;;
82022;SDS011;71575;49.908;18.356;2024-03-02T07:46:16;61.65;;;36.50;;
82022;SDS011;71575;49.908;18.356;2024-03-02T07:49:20;55.78;;;36.85;;
82022;SDS011;71575;49.908;18.356;2024-03-02T07:52:22;55.97;;;36.22;;
82022;SDS011;71575;49.908;18.356;2024-03-02T07:55:23;61.42;;;36.47;;
82022;SDS011;71575;49.908;18.356;2024-03-02T07:58:23;55.47;;;35.53;;
82022;SDS011;71575;49.908;18.356;2024-03-02T08:01:24;56.70;;;36.28;;
82022;SDS011;71575;49.908;18.356;2024-03-02T08:04:25;53.45;;;35.88;;
82022;SDS011;71575;49.908;18.356;2024-03-02T08:07:28;60.85;;;36.67;;
82022;SDS011;71575;49.908;18.356;2024-03-02T08:10:29;57.65;;;33.95;;
82022;SDS011;71575;49.908;18.356;2024-03-02T08:13:29;61.42;;;39.97;;
82022;SDS011;71575;49.908;18.356;2024-03-02T08:16:30;57.25;;;40.42;;
82022;SDS011;71575;49.908;18.356;2024-03-02T08:19:31;57.83;;;41.00;;
82022;SDS011;71575;49.908;18.356;2024-03-02T08:22:32;56.33;;;33.13;;
82022;SDS011;71575;49.908;18.356;2024-03-02T08:25:32;55.05;;;37.55;;
82022;SDS011;71575;49.908;18.356;2024-03-02T08:28:33;54.28;;;32.78;;
82022;SDS011;71575;49.908;18.356;2024-03-02T08:31:34;56.13;;;32.15;;
82022;SDS011;71575;49.908;18.356;2024-03-02T08:34:36;54.20;;;37.30;;
82022;SDS011;71575;49.908;18.356;2024-03-02T08:37:38;63.13;;;40.60;;
82022;SDS011;71575;49.908;18.356;2024-03-02T08:40:40;60.42;;;36.53;;
82022;SDS011;71575;49.908;18.356;2024-03-02T08:43:40;62.38;;;41.30;;
82022;SDS011;71575;49.908;18.356;2024-03-02T08:46:42;59.65;;;38.83;;
82022;SDS011;71575;49.908;18.356;2024-03-02T08:49:43;59.30;;;38.42;;
82022;SDS011;71575;49.908;18.356;2024-03-02T08:52:43;59.00;;;37.22;;
82022;SDS011;71575;49.908;18.356;2024-03-02T08:55:47;60.45;;;38.22;;
82022;SDS011;71575;49.908;18.356;2024-03-02T08:58:48;59.13;;;38.60;;
82022;SDS011;71575;49.908;18.356;2024-03-02T09:01:50;57.83;;;38.22;;
82022;SDS011;71575;49.908;18.356;2024-03-02T09:04:50;58.65;;;41.05;;
82022;SDS011;71575;49.908;18.356;2024-03-02T09:07:52;57.53;;;39.88;;
82022;SDS011;71575;49.908;18.356;2024-03-02T09:10:53;55.70;;;38.92;;
82022;SDS011;71575;49.908;18.356;2024-03-02T09:13:54;59.05;;;38.67;;
82022;SDS011;71575;49.908;18.356;2024-03-02T09:16:54;57.42;;;38.78;;
82022;SDS011;71575;49.908;18.356;2024-03-02T09:19:55;65.15;;;41.42;;
82022;SDS011;71575;49.908;18.356;2024-03-02T09:22:56;60.55;;;41.63;;
82022;SDS011;71575;49.908;18.356;2024-03-02T09:25:57;59.10;;;41.10;;
82022;SDS011;71575;49.908;18.356;2024-03-02T09:28:58;63.00;;;40.45;;
82022;SDS011;71575;49.908;18.356;2024-03-02T09:31:58;60.00;;;36.92;;
82022;SDS011;71575;49.908;18.356;2024-03-02T09:34:59;56.60;;;38.72;;
82022;SDS011;71575;49.908;18.356;2024-03-02T09:38:00;56.80;;;40.05;;
82022;SDS011;71575;49.908;18.356;2024-03-02T09:41:00;59.70;;;39.60;;
82022;SDS011;71575;49.908;18.356;2024-03-02T09:44:01;58.53;;;40.83;;
82022;SDS011;71575;49.908;18.356;2024-03-02T09:47:02;57.28;;;41.67;;
82022;SDS011;71575;49.908;18.356;2024-03-02T09:50:03;59.25;;;39.92;;
82022;SDS011;71575;49.908;18.356;2024-03-02T09:53:06;52.38;;;37.60;;
82022;SDS011;71575;49.908;18.356;2024-03-02T09:56:07;53.72;;;39.15;;
82022;SDS011;71575;49.908;18.356;2024-03-02T09:59:08;48.35;;;31.92;;
82022;SDS011;71575;49.908;18.356;2024-03-02T10:02:09;58.33;;;40.92;;
82022;SDS011;71575;49.908;18.356;2024-03-02T10:05:10;53.15;;;38.40;;
82022;SDS011;71575;49.908;18.356;2024-03-02T10:08:11;44.15;;;32.42;;
82022;SDS011;71575;49.908;18.356;2024-03-02T10:11:15;45.40;;;32.75;;
82022;SDS011;71575;49.908;18.356;2024-03-02T10:14:26;42.05;;;33.78;;
82022;SDS011;71575;49.908;18.356;2024-03-02T10:17:26;41.13;;;29.73;;
82022;SDS011;71575;49.908;18.356;2024-03-02T10:20:31;46.55;;;33.00;;
82022;SDS011;71575;49.908;18.356;2024-03-02T10:23:32;42.42;;;31.92;;
82022;SDS011;71575;49.908;18.356;2024-03-02T10:26:33;41.20;;;29.60;;
82022;SDS011;71575;49.908;18.356;2024-03-02T10:29:34;44.42;;;29.77;;
82022;SDS011;71575;49.908;18.356;2024-03-02T10:32:37;46.20;;;30.38;;
82022;SDS011;71575;49.908;18.356;2024-03-02T10:35:39;45.13;;;30.33;;
82022;SDS011;71575;49.908;18.356;2024-03-02T10:38:40;48.78;;;37.35;;
82022;SDS011;71575;49.908;18.356;2024-03-02T10:41:41;45.42;;;31.50;;
82022;SDS011;71575;49.908;18.356;2024-03-02T10:44:42;46.17;;;31.98;;
82022;SDS011;71575;49.908;18.356;2024-03-02T10:47:43;38.05;;;28.60;;
82022;SDS011;71575;49.908;18.356;2024-03-02T10:50:45;37.60;;;26.73;;
82022;SDS011;71575;49.908;18.356;2024-03-02T10:53:46;34.55;;;24.17;;
82022;SDS011;71575;49.908;18.356;2024-03-02T10:56:46;35.85;;;24.70;;
82022;SDS011;71575;49.908;18.356;2024-03-02T10:59:56;36.60;;;26.60;;
82022;SDS011;71575;49.908;18.356;2024-03-02T11:03:19;37.75;;;27.23;;
82022;SDS011;71575;49.908;18.356;2024-03-02T11:06:20;33.58;;;25.95;;
82022;SDS011;71575;49.908;18.356;2024-03-02T11:09:23;31.27;;;21.73;;
82022;SDS011;71575;49.908;18.356;2024-03-02T11:12:29;32.22;;;22.10;;
82022;SDS011;71575;49.908;18.356;2024-03-02T11:18:33;31.40;;;22.13;;
82022;SDS011;71575;49.908;18.356;2024-03-02T11:21:36;25.80;;;19.60;;
82022;SDS011;71575;49.908;18.356;2024-03-02T11:24:37;21.48;;;15.65;;
82022;SDS011;71575;49.908;18.356;2024-03-02T11:30:48;19.05;;;11.80;;
82022;SDS011;71575;49.908;18.356;2024-03-02T11:33:49;18.75;;;11.02;;
82022;SDS011;71575;49.908;18.356;2024-03-02T11:36:50;18.17;;;10.30;;
82022;SDS011;71575;49.908;18.356;2024-03-02T11:39:51;15.93;;;12.30;;
82022;SDS011;71575;49.908;18.356;2024-03-02T11:42:52;12.38;;;10.68;;
82022;SDS011;71575;49.908;18.356;2024-03-02T11:45:57;15.10;;;8.15;;
82022;SDS011;71575;49.908;18.356;2024-03-02T11:48:59;12.25;;;6.88;;
82022;SDS011;71575;49.908;18.356;2024-03-02T11:52:00;11.30;;;7.88;;
82022;SDS011;71575;49.908;18.356;2024-03-02T11:55:01;10.20;;;7.13;;
82022;SDS011;71575;49.908;18.356;2024-03-02T11:58:06;12.82;;;8.55;;
82022;SDS011;71575;49.908;18.356;2024-03-02T12:01:07;11.88;;;6.75;;
82022;SDS011;71575;49.908;18.356;2024-03-02T12:04:08;10.18;;;5.90;;
82022;SDS011;71575;49.908;18.356;2024-03-02T12:07:08;9.65;;;5.07;;
82022;SDS011;71575;49.908;18.356;2024-03-02T12:10:09;8.52;;;3.80;;
82022;SDS011;71575;49.908;18.356;2024-03-02T12:13:10;6.53;;;4.50;;
82022;SDS011;71575;49.908;18.356;2024-03-02T12:16:11;5.55;;;2.70;;
82022;SDS011;71575;49.908;18.356;2024-03-02T12:19:11;7.32;;;3.72;;
82022;SDS011;71575;49.908;18.356;2024-03-02T12:22:14;5.90;;;3.58;;
82022;SDS011;71575;49.908;18.356;2024-03-02T12:25:15;7.15;;;3.60;;
82022;SDS011;71575;49.908;18.356;2024-03-02T12:28:16;7.30;;;4.05;;
82022;SDS011;71575;49.908;18.356;2024-03-02T12:31:18;6.68;;;2.70;;
82022;SDS011;71575;49.908;18.356;2024-03-02T12:34:21;6.95;;;3.28;;
82022;SDS011;71575;49.908;18.356;2024-03-02T12:37:21;7.13;;;4.65;;
82022;SDS011;71575;49.908;18.356;2024-03-02T12:40:22;7.05;;;4.18;;
82022;SDS011;71575;49.908;18.356;2024-03-02T12:43:23;11.88;;;6.18;;
82022;SDS011;71575;49.908;18.356;2024-03-02T12:46:24;6.82;;;5.07;;
82022;SDS011;71575;49.908;18.356;2024-03-02T12:49:24;8.18;;;4.15;;
82022;SDS011;71575;49.908;18.356;2024-03-02T12:52:25;9.68;;;2.92;;
82022;SDS011;71575;49.908;18.356;2024-03-02T12:55:26;8.40;;;3.53;;
82022;SDS011;71575;49.908;18.356;2024-03-02T12:58:27;7.70;;;5.00;;
82022;SDS011;71575;49.908;18.356;2024-03-02T13:01:28;6.65;;;2.40;;
82022;SDS011;71575;49.908;18.356;2024-03-02T13:04:28;8.57;;;4.47;;
82022;SDS011;71575;49.908;18.356;2024-03-02T13:07:29;7.03;;;4.45;;
82022;SDS011;71575;49.908;18.356;2024-03-02T13:10:30;8.73;;;4.78;;
82022;SDS011;71575;49.908;18.356;2024-03-02T13:13:31;8.80;;;5.32;;
82022;SDS011;71575;49.908;18.356;2024-03-02T13:16:32;9.55;;;5.75;;
82022;SDS011;71575;49.908;18.356;2024-03-02T13:19:38;8.60;;;3.90;;
82022;SDS011;71575;49.908;18.356;2024-03-02T13:22:44;9.23;;;6.18;;
82022;SDS011;71575;49.908;18.356;2024-03-02T13:25:44;8.82;;;5.93;;
82022;SDS011;71575;49.908;18.356;2024-03-02T13:28:45;8.57;;;5.93;;
82022;SDS011;71575;49.908;18.356;2024-03-02T13:31:46;9.82;;;5.18;;
82022;SDS011;71575;49.908;18.356;2024-03-02T13:34:47;10.98;;;5.82;;
82022;SDS011;71575;49.908;18.356;2024-03-02T13:37:47;8.43;;;6.00;;
82022;SDS011;71575;49.908;18.356;2024-03-02T13:40:49;8.70;;;5.07;;
82022;SDS011;71575;49.908;18.356;2024-03-02T13:43:49;8.10;;;5.20;;
82022;SDS011;71575;49.908;18.356;2024-03-02T13:46:50;8.02;;;5.72;;
82022;SDS011;71575;49.908;18.356;2024-03-02T13:49:51;10.05;;;6.78;;
82022;SDS011;71575;49.908;18.356;2024-03-02T13:52:52;9.60;;;6.40;;
82022;SDS011;71575;49.908;18.356;2024-03-02T13:55:53;11.77;;;7.75;;
82022;SDS011;71575;49.908;18.356;2024-03-02T13:58:54;14.73;;;9.52;;
82022;SDS011;71575;49.908;18.356;2024-03-02T14:01:54;16.45;;;10.82;;
82022;SDS011;71575;49.908;18.356;2024-03-02T14:04:55;14.98;;;11.40;;
82022;SDS011;71575;49.908;18.356;2024-03-02T14:07:56;16.48;;;11.75;;
82022;SDS011;71575;49.908;18.356;2024-03-02T14:10:57;19.80;;;14.18;;
82022;SDS011;71575;49.908;18.356;2024-03-02T14:13:57;18.10;;;14.18;;
82022;SDS011;71575;49.908;18.356;2024-03-02T14:16:59;18.05;;;13.07;;
82022;SDS011;71575;49.908;18.356;2024-03-02T14:20:00;18.50;;;12.88;;
82022;SDS011;71575;49.908;18.356;2024-03-02T14:23:01;22.88;;;16.20;;
82022;SDS011;71575;49.908;18.356;2024-03-02T14:26:01;25.33;;;15.25;;
82022;SDS011;71575;49.908;18.356;2024-03-02T14:29:04;22.38;;;14.80;;
82022;SDS011;71575;49.908;18.356;2024-03-02T14:32:05;22.38;;;15.27;;
82022;SDS011;71575;49.908;18.356;2024-03-02T14:35:06;24.77;;;15.77;;
82022;SDS011;71575;49.908;18.356;2024-03-02T14:38:06;27.90;;;16.38;;
82022;SDS011;71575;49.908;18.356;2024-03-02T14:41:07;27.10;;;17.77;;
82022;SDS011;71575;49.908;18.356;2024-03-02T14:44:08;26.77;;;15.93;;
82022;SDS011;71575;49.908;18.356;2024-03-02T14:47:10;22.13;;;16.25;;
82022;SDS011;71575;49.908;18.356;2024-03-02T14:50:10;27.83;;;16.13;;
82022;SDS011;71575;49.908;18.356;2024-03-02T14:53:12;24.58;;;16.98;;
82022;SDS011;71575;49.908;18.356;2024-03-02T14:56:12;27.63;;;17.80;;
82022;SDS011;71575;49.908;18.356;2024-03-02T14:59:13;22.27;;;15.18;;
82022;SDS011;71575;49.908;18.356;2024-03-02T15:02:14;21.38;;;14.30;;
82022;SDS011;71575;49.908;18.356;2024-03-02T15:05:14;20.20;;;12.63;;
82022;SDS011;71575;49.908;18.356;2024-03-02T15:08:16;24.50;;;13.90;;
82022;SDS011;71575;49.908;18.356;2024-03-02T15:11:17;18.52;;;11.98;;
82022;SDS011;71575;49.908;18.356;2024-03-02T15:14:18;19.98;;;12.15;;
82022;SDS011;71575;49.908;18.356;2024-03-02T15:17:19;21.67;;;13.98;;
82022;SDS011;71575;49.908;18.356;2024-03-02T15:20:19;19.35;;;13.10;;
82022;SDS011;71575;49.908;18.356;2024-03-02T15:23:21;19.95;;;11.48;;
82022;SDS011;71575;49.908;18.356;2024-03-02T15:26:21;20.35;;;12.50;;
82022;SDS011;71575;49.908;18.356;2024-03-02T15:29:22;19.63;;;13.75;;
82022;SDS011;71575;49.908;18.356;2024-03-02T15:32:23;21.20;;;13.77;;
82022;SDS011;71575;49.908;18.356;2024-03-02T15:35:24;22.30;;;14.73;;
82022;SDS011;71575;49.908;18.356;2024-03-02T15:38:24;19.40;;;14.10;;
82022;SDS011;71575;49.908;18.356;2024-03-02T15:41:27;20.25;;;12.63;;
82022;SDS011;71575;49.908;18.356;2024-03-02T15:44:28;24.63;;;14.32;;
82022;SDS011;71575;49.908;18.356;2024-03-02T15:47:29;17.00;;;10.43;;
82022;SDS011;71575;49.908;18.356;2024-03-02T15:50:30;21.45;;;13.65;;
82022;SDS011;71575;49.908;18.356;2024-03-02T15:53:33;20.35;;;13.07;;
82022;SDS011;71575;49.908;18.356;2024-03-02T15:56:33;20.52;;;13.80;;
82022;SDS011;71575;49.908;18.356;2024-03-02T15:59:34;21.40;;;13.82;;
82022;SDS011;71575;49.908;18.356;2024-03-02T16:02:35;20.15;;;13.60;;
82022;SDS011;71575;49.908;18.356;2024-03-02T16:05:36;20.55;;;12.32;;
82022;SDS011;71575;49.908;18.356;2024-03-02T16:08:37;21.20;;;13.98;;
82022;SDS011;71575;49.908;18.356;2024-03-02T16:11:38;21.85;;;14.95;;
82022;SDS011;71575;49.908;18.356;2024-03-02T16:14:38;22.55;;;15.27;;
82022;SDS011;71575;49.908;18.356;2024-03-02T16:17:39;24.42;;;15.25;;
82022;SDS011;71575;49.908;18.356;2024-03-02T16:20:40;22.70;;;14.77;;
82022;SDS011;71575;49.908;18.356;2024-03-02T16:23:41;22.83;;;15.82;;
82022;SDS011;71575;49.908;18.356;2024-03-02T16:26:41;26.15;;;16.52;;
82022;SDS011;71575;49.908;18.356;2024-03-02T16:29:42;25.00;;;16.48;;
82022;SDS011;71575;49.908;18.356;2024-03-02T16:32:43;26.95;;;15.60;;
82022;SDS011;71575;49.908;18.356;2024-03-02T16:35:44;31.15;;;18.92;;
82022;SDS011;71575;49.908;18.356;2024-03-02T16:38:44;33.05;;;19.27;;
82022;SDS011;71575;49.908;18.356;2024-03-02T16:41:47;29.10;;;19.75;;
82022;SDS011;71575;49.908;18.356;2024-03-02T16:44:48;28.20;;;18.60;;
82022;SDS011;71575;49.908;18.356;2024-03-02T16:47:49;30.65;;;17.92;;
82022;SDS011;71575;49.908;18.356;2024-03-02T16:50:50;27.65;;;18.15;;
82022;SDS011;71575;49.908;18.356;2024-03-02T16:53:51;31.42;;;18.88;;
82022;SDS011;71575;49.908;18.356;2024-03-02T16:56:51;30.70;;;18.15;;
82022;SDS011;71575;49.908;18.356;2024-03-02T16:59:52;27.98;;;18.48;;
82022;SDS011;71575;49.908;18.356;2024-03-02T17:02:53;29.98;;;19.10;;
82022;SDS011;71575;49.908;18.356;2024-03-02T17:06:02;29.13;;;20.38;;
82022;SDS011;71575;49.908;18.356;2024-03-02T17:09:03;31.75;;;18.40;;
82022;SDS011;71575;49.908;18.356;2024-03-02T17:12:05;28.27;;;18.92;;
82022;SDS011;71575;49.908;18.356;2024-03-02T17:15:06;31.73;;;20.30;;
82022;SDS011;71575;49.908;18.356;2024-03-02T17:18:08;31.50;;;21.00;;
82022;SDS011;71575;49.908;18.356;2024-03-02T17:21:09;36.75;;;22.02;;
82022;SDS011;71575;49.908;18.356;2024-03-02T17:24:11;40.33;;;28.05;;
82022;SDS011;71575;49.908;18.356;2024-03-02T17:27:12;41.50;;;27.08;;
82022;SDS011;71575;49.908;18.356;2024-03-02T17:30:13;44.60;;;28.75;;
82022;SDS011;71575;49.908;18.356;2024-03-02T17:33:13;45.60;;;29.67;;